Time;durP1;ratioP1;P1;durP2;ratioP2;P2;SDS_P1;SDS_P2;PMS_P1;PMS_P2;Temp;Humidity;BMP_temperature;BMP_pressure;BME280_temperature;BME280_humidity;BME280_pressure;Samples;Min_cycle;Max_cycle;Signal;HPM_P1;HPM_P2
2022/02/26 00:00:17;;;;;;;4.37;3.20;;;5.60;1.00;;;;;;5103173;28;20185;-62
2022/02/26 00:02:42;;;;;;;8.67;3.33;;;5.60;1.00;;;;;;5100792;28;20632;-61
2022/02/26 00:05:09;;;;;;;12.97;5.20;;;;;;;;;;5106518;28;20531;-61
2022/02/26 00:07:34;;;;;;;6.97;3.10;;;5.50;1.00;;;;;;5108508;28;20506;-62
2022/02/26 00:10:00;;;;;;;9.07;3.67;;;5.60;1.00;;;;;;5108243;28;20447;-62
2022/02/26 00:12:27;;;;;;;10.37;4.60;;;5.60;1.00;;;;;;5097758;28;20243;-62
2022/02/26 00:14:52;;;;;;;4.50;3.37;;;5.60;1.00;;;;;;5116804;28;20431;-62
2022/02/26 00:17:18;;;;;;;6.33;3.50;;;5.60;1.00;;;;;;5106897;28;20454;-61
2022/02/26 00:19:44;;;;;;;8.27;4.00;;;;;;;;;;5107865;28;20217;-62
2022/02/26 00:22:10;;;;;;;8.57;3.37;;;;;;;;;;5108278;28;20175;-61
2022/02/26 00:24:35;;;;;;;5.13;3.47;;;5.60;1.00;;;;;;5116442;28;20432;-62
2022/02/26 00:27:01;;;;;;;7.87;3.93;;;5.70;1.00;;;;;;5106242;28;20466;-62
2022/02/26 00:29:26;;;;;;;9.37;4.13;;;5.80;1.00;;;;;;5114204;28;20186;-62
2022/02/26 00:31:52;;;;;;;9.70;4.00;;;;;;;;;;5116408;28;20209;-62
2022/02/26 00:34:18;;;;;;;8.13;3.37;;;5.70;1.00;;;;;;5114232;28;20873;-62
2022/02/26 00:36:45;;;;;;;8.07;4.50;;;5.70;1.00;;;;;;5116434;28;20433;-62
2022/02/26 00:39:10;;;;;;;19.43;3.80;;;5.70;1.00;;;;;;5116654;28;20259;-62
2022/02/26 00:41:36;;;;;;;12.73;4.23;;;5.80;1.00;;;;;;5116224;28;20439;-62
2022/02/26 00:44:02;;;;;;;10.73;3.67;;;5.90;1.00;;;;;;5104296;28;20204;-61
2022/02/26 00:46:27;;;;;;;14.53;3.60;;;5.80;1.00;;;;;;5100191;28;20586;-62
2022/02/26 00:51:37;;;;;;;7.63;3.97;;;5.80;1.00;;;;;;5100079;28;20531;-63
2022/02/26 00:54:03;;;;;;;13.50;4.07;;;5.80;1.00;;;;;;5106299;28;20570;-63
2022/02/26 00:56:28;;;;;;;6.43;3.57;;;5.70;1.00;;;;;;5109150;28;20613;-64
2022/02/26 00:58:56;;;;;;;16.07;3.73;;;5.70;1.00;;;;;;5106387;28;20247;-63
2022/02/26 01:01:22;;;;;;;8.00;2.90;;;5.70;1.00;;;;;;5103038;28;20179;-62
2022/02/26 01:03:49;;;;;;;10.80;3.30;;;5.70;1.00;;;;;;5113021;28;20440;-63
2022/02/26 01:06:14;;;;;;;18.13;4.40;;;5.80;1.00;;;;;;5098130;28;20516;-62
2022/02/26 01:08:40;;;;;;;11.33;4.00;;;5.80;1.00;;;;;;5105479;28;20547;-60
2022/02/26 01:11:05;;;;;;;6.87;3.53;;;5.80;1.00;;;;;;5109258;28;20219;-62
2022/02/26 01:13:32;;;;;;;6.90;3.07;;;5.80;1.00;;;;;;5104490;28;20311;-62
2022/02/26 01:15:57;;;;;;;11.00;3.10;;;5.90;1.00;;;;;;5100445;28;20656;-62
2022/02/26 01:18:23;;;;;;;12.03;3.97;;;5.90;1.00;;;;;;5111105;28;20467;-62
2022/02/26 01:20:49;;;;;;;13.10;4.30;;;5.80;1.00;;;;;;5113895;28;20186;-61
2022/02/26 01:23:14;;;;;;;10.07;2.87;;;5.70;1.00;;;;;;5115936;28;20170;-63
2022/02/26 01:25:40;;;;;;;12.87;3.37;;;5.90;1.00;;;;;;5106491;28;20213;-62
2022/02/26 01:28:05;;;;;;;9.77;3.67;;;5.90;1.00;;;;;;5113333;28;20631;-63
2022/02/26 01:30:31;;;;;;;10.43;3.30;;;5.90;1.00;;;;;;5109973;28;20190;-62
2022/02/26 01:32:57;;;;;;;12.27;4.13;;;5.90;1.00;;;;;;5100704;28;20182;-62
2022/02/26 01:35:22;;;;;;;14.17;3.30;;;5.80;1.00;;;;;;5115524;28;20670;-61
2022/02/26 01:37:48;;;;;;;16.03;3.33;;;5.90;1.00;;;;;;5108372;28;20243;-62
2022/02/26 01:40:14;;;;;;;11.37;2.77;;;5.90;1.00;;;;;;5108081;28;20212;-62
2022/02/26 01:42:39;;;;;;;11.37;3.23;;;5.80;1.00;;;;;;5114218;28;20258;-62
2022/02/26 01:45:16;;;;;;;8.93;2.90;;;5.90;1.00;;;;;;5106449;28;20239;-61
2022/02/26 01:47:42;;;;;;;12.27;3.43;;;5.90;1.00;;;;;;5103091;28;20166;-62
2022/02/26 01:50:11;;;;;;;10.43;2.57;;;5.90;1.00;;;;;;5104773;28;20443;-62
2022/02/26 01:52:37;;;;;;;12.23;2.67;;;5.90;1.00;;;;;;5103756;28;20546;-61
2022/02/26 01:55:04;;;;;;;14.87;3.40;;;5.80;1.00;;;;;;5108570;28;20476;-62
2022/02/26 01:57:29;;;;;;;12.20;3.60;;;5.80;1.00;;;;;;5115020;28;21006;-61
2022/02/26 01:59:55;;;;;;;8.43;2.57;;;5.70;1.00;;;;;;5111092;28;20464;-63
2022/02/26 02:02:21;;;;;;;9.93;3.37;;;5.70;1.00;;;;;;5100218;28;20175;-62
2022/02/26 02:04:47;;;;;;;9.10;3.13;;;5.70;1.00;;;;;;5099904;28;20541;-61
2022/02/26 02:07:14;;;;;;;13.93;3.80;;;5.70;1.00;;;;;;5113172;28;20435;-62
2022/02/26 02:09:42;;;;;;;9.90;3.83;;;5.90;1.00;;;;;;5111615;28;20214;-62
2022/02/26 02:12:08;;;;;;;14.47;3.37;;;5.90;1.00;;;;;;5109884;28;20422;-62
2022/02/26 02:14:34;;;;;;;12.03;3.80;;;5.90;1.00;;;;;;5109303;28;20504;-63
2022/02/26 02:17:00;;;;;;;8.27;3.20;;;5.90;1.00;;;;;;5106390;28;20432;-63
2022/02/26 02:19:26;;;;;;;8.70;3.07;;;;;;;;;;5110016;28;20208;-62
2022/02/26 02:21:52;;;;;;;14.03;3.60;;;5.80;1.00;;;;;;5102409;28;20439;-62
2022/02/26 02:24:18;;;;;;;12.10;3.60;;;5.90;1.00;;;;;;5100298;28;20591;-63
2022/02/26 02:26:45;;;;;;;9.73;3.07;;;6.00;1.00;;;;;;5108492;28;20186;-62
2022/02/26 02:29:11;;;;;;;9.50;3.20;;;5.90;1.00;;;;;;5108550;28;20193;-63
2022/02/26 02:31:37;;;;;;;15.80;4.73;;;5.90;1.00;;;;;;5103695;28;20530;-63
2022/02/26 02:34:03;;;;;;;10.10;3.60;;;5.80;1.00;;;;;;5104064;28;20447;-63
2022/02/26 02:36:29;;;;;;;14.53;2.80;;;5.90;1.00;;;;;;5103400;28;21009;-60
2022/02/26 02:38:55;;;;;;;8.43;3.70;;;5.90;1.00;;;;;;5111453;28;20508;-61
2022/02/26 02:41:20;;;;;;;17.83;3.90;;;5.90;1.00;;;;;;5103138;28;20182;-61
2022/02/26 02:43:46;;;;;;;18.37;3.97;;;5.90;1.00;;;;;;5104794;28;20531;-62
2022/02/26 02:46:12;;;;;;;12.47;3.80;;;5.90;1.00;;;;;;5100528;28;20189;-61
2022/02/26 02:48:38;;;;;;;11.10;3.90;;;5.90;1.00;;;;;;5104907;28;20186;-62
2022/02/26 02:51:08;;;;;;;13.67;3.40;;;5.90;1.00;;;;;;5105383;28;20198;-62
2022/02/26 02:53:34;;;;;;;21.00;4.20;;;;;;;;;;5107724;28;20447;-62
2022/02/26 02:55:59;;;;;;;11.53;3.00;;;5.80;1.00;;;;;;5113972;28;20448;-62
2022/02/26 02:58:27;;;;;;;8.23;3.50;;;5.80;1.00;;;;;;5101590;28;20861;-61
2022/02/26 03:00:54;;;;;;;6.90;2.50;;;5.80;1.00;;;;;;5110798;28;20186;-62
2022/02/26 03:03:19;;;;;;;14.20;3.60;;;5.80;1.00;;;;;;5106370;28;20437;-60
2022/02/26 03:05:46;;;;;;;10.63;3.03;;;5.70;1.00;;;;;;5113748;28;20923;-61
2022/02/26 03:08:12;;;;;;;11.10;3.53;;;5.60;1.00;;;;;;5113941;28;20272;-61
2022/02/26 03:10:37;;;;;;;17.37;3.70;;;5.70;1.00;;;;;;5108398;28;20443;-62
2022/02/26 03:13:03;;;;;;;19.27;3.30;;;;;;;;;;5113989;28;20526;-61
2022/02/26 03:15:29;;;;;;;10.67;2.70;;;5.90;1.00;;;;;;5105118;28;20186;-63
2022/02/26 03:17:54;;;;;;;16.87;4.30;;;5.90;1.00;;;;;;5105728;28;20454;-61
2022/02/26 03:20:21;;;;;;;14.80;4.30;;;5.80;1.00;;;;;;5083768;28;20195;-61
2022/02/26 03:22:46;;;;;;;14.17;2.70;;;5.90;1.00;;;;;;5109847;28;20185;-61
2022/02/26 03:25:13;;;;;;;11.67;3.60;;;5.90;1.00;;;;;;5112657;28;20440;-61
2022/02/26 03:27:39;;;;;;;12.67;2.70;;;5.90;1.00;;;;;;5108430;28;20186;-61
2022/02/26 03:30:06;;;;;;;20.50;3.30;;;6.00;1.00;;;;;;5110067;28;20547;-60
2022/02/26 03:32:32;;;;;;;20.83;3.90;;;6.00;1.00;;;;;;5104744;28;20458;-60
2022/02/26 03:34:57;;;;;;;9.70;3.37;;;5.90;1.00;;;;;;5099004;28;20440;-62
2022/02/26 03:37:26;;;;;;;14.73;3.63;;;;;;;;;;5108823;28;20256;-60
2022/02/26 03:39:52;;;;;;;12.57;3.20;;;5.70;1.00;;;;;;5093588;28;20213;-61
2022/02/26 03:42:17;;;;;;;9.33;3.87;;;5.80;1.00;;;;;;5112440;28;20444;-61
2022/02/26 03:44:46;;;;;;;15.27;4.20;;;5.90;1.00;;;;;;5107757;28;20594;-61
2022/02/26 03:47:12;;;;;;;11.43;4.37;;;5.90;1.00;;;;;;5103447;28;20170;-61
2022/02/26 03:49:37;;;;;;;10.73;4.17;;;5.90;1.00;;;;;;5101798;28;21033;-62
2022/02/26 03:52:03;;;;;;;15.63;4.20;;;5.80;1.00;;;;;;5112811;28;20326;-62
2022/02/26 03:54:29;;;;;;;15.00;3.60;;;5.70;1.00;;;;;;5099917;28;20238;-61
2022/02/26 03:56:54;;;;;;;12.80;4.07;;;5.80;1.00;;;;;;5110340;28;20844;-60
2022/02/26 03:59:21;;;;;;;12.93;4.37;;;5.80;1.00;;;;;;5098941;28;20296;-61
2022/02/26 04:01:46;;;;;;;13.83;4.13;;;5.80;1.00;;;;;;5094240;28;20202;-61
2022/02/26 04:04:12;;;;;;;13.20;4.00;;;5.70;1.00;;;;;;5113226;28;20509;-61
2022/02/26 04:06:37;;;;;;;17.40;5.07;;;5.80;1.00;;;;;;5104201;28;20182;-61
2022/02/26 04:09:03;;;;;;;8.47;3.87;;;5.80;1.00;;;;;;5112893;28;20189;-61
2022/02/26 04:11:29;;;;;;;8.50;3.60;;;5.80;1.00;;;;;;5101444;28;20647;-62
2022/02/26 04:13:55;;;;;;;11.27;3.47;;;;;;;;;;5090355;28;20442;-60
2022/02/26 04:16:21;;;;;;;10.00;3.80;;;;;;;;;;5104916;28;20670;-62
2022/02/26 04:18:47;;;;;;;6.63;2.80;;;5.70;1.00;;;;;;5101669;28;20525;-62
2022/02/26 04:21:13;;;;;;;11.53;3.93;;;;;;;;;;5104187;28;20471;-62
2022/02/26 04:23:39;;;;;;;9.70;3.53;;;5.90;1.00;;;;;;5109684;28;20249;-62
2022/02/26 04:26:04;;;;;;;8.10;3.00;;;5.90;1.00;;;;;;5107333;28;20436;-62
2022/02/26 04:28:30;;;;;;;15.73;3.83;;;;;;;;;;5109764;28;20977;-61
2022/02/26 04:30:56;;;;;;;18.00;3.70;;;5.90;1.00;;;;;;5112528;28;20186;-62
2022/02/26 04:33:22;;;;;;;15.50;3.47;;;;;;;;;;5105981;28;20769;-63
2022/02/26 04:35:47;;;;;;;11.83;4.50;;;5.90;1.00;;;;;;5106827;28;20200;-61
2022/02/26 04:38:14;;;;;;;11.60;2.90;;;;;;;;;;5103199;28;20469;-62
2022/02/26 04:40:39;;;;;;;12.20;3.30;;;5.90;1.00;;;;;;5107049;28;20178;-61
2022/02/26 04:43:05;;;;;;;12.07;3.00;;;;;;;;;;5102301;28;20444;-62
2022/02/26 04:45:31;;;;;;;8.83;3.63;;;6.00;1.00;;;;;;5109443;28;20181;-62
2022/02/26 04:47:57;;;;;;;10.90;3.03;;;6.10;1.00;;;;;;5104078;28;20432;-63
2022/02/26 04:50:22;;;;;;;12.67;3.30;;;6.00;1.00;;;;;;5111951;28;20703;-61
2022/02/26 04:52:48;;;;;;;9.13;2.33;;;5.90;1.00;;;;;;5094880;28;20440;-62
2022/02/26 04:55:14;;;;;;;12.73;3.13;;;5.90;1.00;;;;;;5094398;28;20238;-61
2022/02/26 04:57:41;;;;;;;10.70;4.03;;;5.90;1.00;;;;;;5095746;28;20190;-63
2022/02/26 05:00:09;;;;;;;16.27;3.30;;;6.00;1.00;;;;;;5113271;28;20596;-63
2022/02/26 05:02:35;;;;;;;9.40;2.87;;;5.90;1.00;;;;;;5104788;28;20995;-61
2022/02/26 05:05:01;;;;;;;11.10;3.07;;;5.90;1.00;;;;;;5114781;28;20956;-61
2022/02/26 05:07:27;;;;;;;13.67;3.00;;;5.90;1.00;;;;;;5105631;28;20439;-62
2022/02/26 05:09:52;;;;;;;12.87;2.80;;;5.80;1.00;;;;;;5104026;28;20672;-62
2022/02/26 05:12:18;;;;;;;9.93;2.50;;;5.70;1.00;;;;;;5105737;28;20191;-62
2022/02/26 05:14:44;;;;;;;9.77;2.87;;;5.80;1.00;;;;;;5112717;28;20198;-63
2022/02/26 05:17:09;;;;;;;7.90;2.53;;;5.80;1.00;;;;;;5112614;28;20195;-62
2022/02/26 05:19:35;;;;;;;9.60;2.70;;;5.80;1.00;;;;;;5114523;28;20959;-63
2022/02/26 05:22:00;;;;;;;10.53;3.07;;;5.70;1.00;;;;;;5099982;28;20222;-62
2022/02/26 05:24:26;;;;;;;10.97;3.23;;;5.80;1.00;;;;;;5102144;28;20217;-63
2022/02/26 05:26:52;;;;;;;6.90;2.13;;;;;;;;;;5108319;28;20197;-61
2022/02/26 05:29:19;;;;;;;8.57;2.33;;;5.70;1.00;;;;;;5108430;28;20179;-62
2022/02/26 05:31:45;;;;;;;10.90;3.17;;;5.80;1.00;;;;;;5095744;28;20450;-61
2022/02/26 05:34:10;;;;;;;9.10;2.53;;;5.80;1.00;;;;;;5112997;28;20868;-62
2022/02/26 05:36:36;;;;;;;7.83;2.10;;;5.70;1.00;;;;;;5114145;28;20224;-62
2022/02/26 05:39:02;;;;;;;14.20;2.80;;;;;;;;;;5086130;28;20213;-61
2022/02/26 05:41:28;;;;;;;9.23;3.23;;;5.80;1.00;;;;;;5106865;28;20182;-62
2022/02/26 05:43:53;;;;;;;12.07;3.43;;;5.80;1.00;;;;;;5112948;28;20431;-62
2022/02/26 05:46:19;;;;;;;11.77;3.77;;;5.70;1.00;;;;;;5106480;28;20174;-62
2022/02/26 05:48:45;;;;;;;10.20;3.30;;;5.70;1.00;;;;;;5109670;28;20197;-62
2022/02/26 05:51:10;;;;;;;10.33;3.60;;;5.60;1.00;;;;;;5112048;28;20639;-61
2022/02/26 05:53:37;;;;;;;8.57;3.13;;;5.50;1.00;;;;;;5097534;28;20187;-61
2022/02/26 05:56:05;;;;;;;6.23;3.33;;;5.50;1.00;;;;;;5109052;28;20185;-63
2022/02/26 05:58:31;;;;;;;7.53;3.20;;;5.50;1.00;;;;;;5094890;28;20552;-64
2022/02/26 06:00:57;;;;;;;6.27;2.80;;;5.60;1.00;;;;;;5094941;28;20503;-62
2022/02/26 06:03:23;;;;;;;9.00;3.60;;;5.40;1.00;;;;;;5105301;28;20209;-61
2022/02/26 06:05:48;;;;;;;6.60;4.10;;;5.30;1.00;;;;;;5115005;28;20678;-61
2022/02/26 06:08:14;;;;;;;8.30;3.97;;;;;;;;;;5108991;28;20455;-61
2022/02/26 06:10:40;;;;;;;14.20;4.00;;;5.10;1.00;;;;;;5100733;28;20186;-61
2022/02/26 06:13:06;;;;;;;20.00;5.20;;;5.10;1.00;;;;;;5111011;28;20441;-61
2022/02/26 06:15:32;;;;;;;13.60;4.10;;;;;;;;;;5083058;28;20179;-62
2022/02/26 06:17:58;;;;;;;13.13;3.83;;;5.00;1.00;;;;;;5098908;28;20193;-62
2022/02/26 06:20:23;;;;;;;18.47;3.70;;;5.00;1.00;;;;;;5109914;28;20428;-62
2022/02/26 06:22:49;;;;;;;7.13;3.40;;;5.10;1.00;;;;;;5105586;28;20961;-62
2022/02/26 06:25:16;;;;;;;10.93;4.00;;;5.10;1.00;;;;;;5115137;28;20188;-62
2022/02/26 06:27:43;;;;;;;11.87;4.27;;;5.20;1.00;;;;;;5106099;28;20446;-61
2022/02/26 06:30:10;;;;;;;10.40;3.53;;;5.20;1.00;;;;;;5114822;28;20453;-61
2022/02/26 06:32:37;;;;;;;15.07;4.43;;;5.40;1.00;;;;;;5107734;28;20444;-61
2022/02/26 06:35:04;;;;;;;13.10;3.97;;;5.30;1.00;;;;;;5108998;28;20441;-61
2022/02/26 06:37:30;;;;;;;15.37;4.53;;;5.30;1.00;;;;;;5094566;28;20435;-61
2022/02/26 06:39:55;;;;;;;12.80;4.00;;;5.20;1.00;;;;;;5093915;28;20551;-62
2022/02/26 06:42:21;;;;;;;12.43;4.80;;;5.10;1.00;;;;;;5094070;28;20228;-63
2022/02/26 06:44:47;;;;;;;15.07;5.10;;;5.20;1.00;;;;;;5107516;28;20191;-62
2022/02/26 06:47:13;;;;;;;10.80;3.60;;;5.20;1.00;;;;;;5106917;28;20597;-62
2022/02/26 06:49:38;;;;;;;16.57;4.63;;;5.20;1.00;;;;;;5097721;28;20444;-62
2022/02/26 06:52:05;;;;;;;11.50;4.60;;;5.20;1.00;;;;;;5108603;28;20226;-61
2022/02/26 06:54:30;;;;;;;15.53;4.23;;;5.40;1.00;;;;;;5105449;28;20214;-61
2022/02/26 06:56:56;;;;;;;11.50;4.50;;;5.40;1.00;;;;;;5105967;28;20439;-61
2022/02/26 06:59:21;;;;;;;9.70;4.27;;;5.30;1.00;;;;;;5103235;28;20704;-61
2022/02/26 07:01:49;;;;;;;12.10;3.90;;;;;;;;;;5103931;28;20187;-61
2022/02/26 07:04:15;;;;;;;10.47;3.97;;;5.30;1.00;;;;;;5108590;28;20191;-62
2022/02/26 07:06:44;;;;;;;13.20;4.50;;;5.50;1.00;;;;;;5107963;28;20440;-62
2022/02/26 07:09:10;;;;;;;10.40;4.60;;;5.50;1.00;;;;;;5109246;28;20182;-63
2022/02/26 07:11:36;;;;;;;15.37;5.67;;;5.50;1.00;;;;;;5107712;28;20449;-62
2022/02/26 07:14:02;;;;;;;12.23;4.60;;;;;;;;;;5110698;28;20450;-62
2022/02/26 07:16:28;;;;;;;15.27;5.43;;;5.60;1.00;;;;;;5105645;28;20190;-63
2022/02/26 07:18:54;;;;;;;14.20;4.40;;;5.50;1.00;;;;;;5108780;28;20466;-63
2022/02/26 07:21:19;;;;;;;14.20;5.10;;;5.60;1.00;;;;;;5106175;28;20265;-63
2022/02/26 07:23:45;;;;;;;18.17;5.00;;;5.60;1.00;;;;;;5100331;28;20637;-65
2022/02/26 07:26:10;;;;;;;14.87;4.80;;;5.70;1.00;;;;;;5107557;28;20706;-64
2022/02/26 07:28:36;;;;;;;21.47;6.30;;;;;;;;;;5095439;28;20193;-62
2022/02/26 07:31:02;;;;;;;8.53;4.77;;;;;;;;;;5093665;28;20617;-61
2022/02/26 07:33:28;;;;;;;13.53;5.00;;;;;;;;;;5094162;28;20449;-60
2022/02/26 07:35:54;;;;;;;11.80;8.07;;;5.70;1.00;;;;;;5107672;28;20435;-63
2022/02/26 07:38:19;;;;;;;15.73;5.40;;;5.70;1.00;;;;;;5098378;28;20472;-63
2022/02/26 07:40:45;;;;;;;23.63;5.60;;;5.70;1.00;;;;;;5110717;28;20181;-63
2022/02/26 07:43:11;;;;;;;16.10;4.97;;;5.80;1.00;;;;;;5108261;28;20174;-63
2022/02/26 07:45:37;;;;;;;17.17;6.00;;;5.80;1.00;;;;;;5105669;28;20675;-65
2022/02/26 07:48:03;;;;;;;18.37;5.33;;;5.90;1.00;;;;;;5095622;28;20248;-63
2022/02/26 07:50:28;;;;;;;19.10;5.57;;;5.90;1.00;;;;;;5090594;28;20424;-64
2022/02/26 07:52:54;;;;;;;19.33;5.80;;;5.90;1.00;;;;;;5096267;28;20440;-63
2022/02/26 07:55:19;;;;;;;16.50;5.90;;;6.00;1.00;;;;;;5097254;28;20218;-62
2022/02/26 07:57:45;;;;;;;18.60;5.37;;;5.80;1.00;;;;;;5096932;28;20232;-63
2022/02/26 08:00:11;;;;;;;14.37;4.23;;;5.80;1.00;;;;;;5103084;28;20194;-63
2022/02/26 08:02:37;;;;;;;6.83;4.00;;;5.80;1.00;;;;;;5094367;28;20609;-64
2022/02/26 08:05:03;;;;;;;11.47;5.00;;;5.80;1.00;;;;;;5094248;28;20492;-63
2022/02/26 08:07:28;;;;;;;15.37;5.70;;;5.90;1.00;;;;;;5095122;28;20207;-63
2022/02/26 08:09:54;;;;;;;9.50;5.10;;;5.80;1.00;;;;;;5099293;28;20435;-63
2022/02/26 08:12:19;;;;;;;12.97;5.13;;;5.90;1.00;;;;;;5103108;28;20655;-64
2022/02/26 08:14:45;;;;;;;15.07;5.13;;;5.90;1.00;;;;;;5095447;28;20190;-63
2022/02/26 08:17:11;;;;;;;20.83;5.63;;;5.90;1.00;;;;;;5091300;28;20190;-63
2022/02/26 08:19:38;;;;;;;17.20;6.07;;;6.10;1.00;;;;;;5108314;28;20202;-63
2022/02/26 08:22:04;;;;;;;8.47;4.50;;;6.20;1.00;;;;;;5074922;28;20179;-63
2022/02/26 08:24:30;;;;;;;12.37;5.30;;;6.10;1.00;;;;;;5093882;28;20790;-63
2022/02/26 08:26:56;;;;;;;14.73;5.67;;;6.10;1.00;;;;;;5091095;28;20644;-63
2022/02/26 08:29:21;;;;;;;17.60;5.87;;;6.20;1.00;;;;;;5100603;28;20450;-63
2022/02/26 08:31:47;;;;;;;18.40;6.13;;;6.20;1.00;;;;;;5106526;28;21302;-64
2022/02/26 08:34:12;;;;;;;19.87;4.43;;;;;;;;;;5104924;28;20652;-63
2022/02/26 08:36:41;;;;;;;15.37;5.50;;;;;;;;;;5097829;28;20186;-63
2022/02/26 08:39:06;;;;;;;17.50;5.43;;;6.10;1.00;;;;;;5109496;28;20490;-64
2022/02/26 08:41:32;;;;;;;18.80;5.00;;;6.30;1.00;;;;;;5105148;28;20432;-63
2022/02/26 08:43:57;;;;;;;10.03;4.27;;;6.40;1.00;;;;;;5100116;28;20186;-64
2022/02/26 08:46:23;;;;;;;18.80;5.27;;;6.40;1.00;;;;;;5107060;28;20178;-64
2022/02/26 08:48:49;;;;;;;12.47;4.73;;;6.50;1.00;;;;;;5114160;28;20182;-64
2022/02/26 08:51:14;;;;;;;19.93;6.03;;;6.50;1.00;;;;;;5087018;28;20259;-62
2022/02/26 08:53:40;;;;;;;15.03;5.60;;;6.60;1.00;;;;;;5092599;28;20591;-64
2022/02/26 08:56:06;;;;;;;8.60;4.20;;;;;;;;;;5102022;28;20183;-64
2022/02/26 08:58:32;;;;;;;11.60;4.37;;;6.60;1.00;;;;;;5100363;28;20537;-63
2022/02/26 09:00:57;;;;;;;11.27;4.93;;;6.50;1.00;;;;;;5107351;28;20411;-63
2022/02/26 09:03:23;;;;;;;21.50;4.90;;;6.70;1.00;;;;;;5113835;28;20178;-63
2022/02/26 09:05:50;;;;;;;18.47;5.40;;;6.70;1.00;;;;;;5098840;28;20193;-64
2022/02/26 09:08:16;;;;;;;12.93;4.47;;;6.90;1.00;;;;;;5095887;28;20182;-65
2022/02/26 09:10:42;;;;;;;13.30;4.13;;;;;;;;;;5101715;28;20444;-65
2022/02/26 09:13:09;;;;;;;7.30;3.50;;;7.00;1.00;;;;;;5111990;28;20516;-64
2022/02/26 09:15:34;;;;;;;18.30;4.43;;;7.00;1.00;;;;;;5107200;28;20443;-65
2022/02/26 09:18:00;;;;;;;6.83;3.53;;;6.90;1.00;;;;;;5113260;28;20466;-63
2022/02/26 09:20:26;;;;;;;17.73;4.67;;;6.80;1.00;;;;;;5112955;28;20185;-64
2022/02/26 09:22:51;;;;;;;13.73;4.33;;;6.80;1.00;;;;;;5100368;28;20233;-62
2022/02/26 09:25:17;;;;;;;15.33;4.70;;;6.80;1.00;;;;;;5112522;28;20178;-68
2022/02/26 09:27:43;;;;;;;13.70;4.63;;;6.80;1.00;;;;;;5097300;28;20185;-68
2022/02/26 09:30:10;;;;;;;11.80;4.70;;;6.90;1.00;;;;;;5095396;28;20640;-70
2022/02/26 09:32:36;;;;;;;28.13;5.50;;;6.90;1.00;;;;;;5084194;28;20489;-70
2022/02/26 09:35:03;;;;;;;11.00;4.13;;;7.10;1.00;;;;;;5115404;28;20431;-70
2022/02/26 09:37:29;;;;;;;13.10;4.67;;;7.40;1.00;;;;;;5083618;28;20182;-70
2022/02/26 09:39:58;;;;;;;14.70;5.30;;;7.60;1.00;;;;;;5095000;28;20984;-67
2022/02/26 09:42:27;;;;;;;11.27;4.10;;;7.70;1.00;;;;;;5100458;28;20174;-68
2022/02/26 09:44:53;;;;;;;14.07;4.57;;;;;;;;;;5095330;28;20440;-70
2022/02/26 09:47:21;;;;;;;10.20;3.93;;;8.00;1.00;;;;;;5094471;28;20440;-70
2022/02/26 09:49:46;;;;;;;10.37;4.07;;;8.00;1.00;;;;;;5106729;28;20478;-70
2022/02/26 09:52:12;;;;;;;13.60;3.50;;;8.10;1.00;;;;;;5103219;28;20438;-72
2022/02/26 09:54:38;;;;;;;16.40;4.03;;;8.10;1.00;;;;;;5094767;28;20218;-68
2022/02/26 09:57:04;;;;;;;13.33;4.23;;;8.20;1.00;;;;;;5100291;28;20455;-73
2022/02/26 09:59:30;;;;;;;11.17;4.50;;;8.40;1.00;;;;;;5110425;28;20216;-66
2022/02/26 10:01:59;;;;;;;14.17;4.17;;;8.20;1.00;;;;;;5111040;28;20181;-75
2022/02/26 10:04:25;;;;;;;16.90;3.80;;;;;;;;;;5104380;28;20185;-74
2022/02/26 10:06:50;;;;;;;16.27;3.50;;;8.20;1.00;;;;;;5107615;28;20424;-67
2022/02/26 10:09:16;;;;;;;17.07;4.13;;;8.40;1.00;;;;;;5104643;28;20448;-69
2022/02/26 10:11:42;;;;;;;8.93;3.70;;;8.70;1.00;;;;;;5097907;28;20196;-68
2022/02/26 10:14:16;;;;;;;13.20;3.90;;;8.80;1.00;;;;;;5099815;28;20213;-66
2022/02/26 10:16:52;;;;;;;9.40;3.23;;;;;;;;;;5096372;28;20457;-69
2022/02/26 10:19:25;;;;;;;14.50;3.00;;;9.00;1.00;;;;;;5074447;28;20551;-69
2022/02/26 10:21:52;;;;;;;11.20;3.93;;;9.00;1.00;;;;;;5099974;28;20419;-69
2022/02/26 10:24:18;;;;;;;13.40;3.27;;;8.90;1.00;;;;;;5090135;28;20444;-69
2022/02/26 10:26:57;;;;;;;7.00;2.60;;;8.90;1.00;;;;;;5097735;28;20444;-68
2022/02/26 10:29:24;;;;;;;13.33;3.10;;;8.50;1.00;;;;;;5095607;28;20183;-70
2022/02/26 10:31:54;;;;;;;8.30;2.60;;;8.50;1.00;;;;;;5105228;28;20494;-69
2022/02/26 10:34:26;;;;;;;9.57;2.97;;;8.50;1.00;;;;;;5112069;28;20427;-70
2022/02/26 10:37:07;;;;;;;9.40;2.90;;;8.70;1.00;;;;;;5101449;28;20444;-71
2022/02/26 10:39:43;;;;;;;13.33;3.10;;;;;;;;;;5094122;28;20460;-71
2022/02/26 10:42:16;;;;;;;8.53;2.50;;;9.20;1.00;;;;;;5104328;28;20443;-70
2022/02/26 10:44:42;;;;;;;13.03;2.70;;;9.50;1.00;;;;;;5111906;28;20431;-71
2022/02/26 10:47:13;;;;;;;18.47;4.10;;;9.70;1.00;;;;;;5098194;28;20414;-71
2022/02/26 10:49:40;;;;;;;14.37;4.00;;;9.70;1.00;;;;;;5108058;28;20208;-69
2022/02/26 10:52:08;;;;;;;14.83;3.50;;;9.60;1.00;;;;;;5094680;28;20452;-71
2022/02/26 10:54:34;;;;;;;9.07;2.83;;;;;;;;;;5099514;28;20442;-73
2022/02/26 10:57:05;;;;;;;7.77;3.13;;;9.50;1.00;;;;;;5100562;28;20964;-73
2022/02/26 10:59:41;;;;;;;10.53;3.80;;;9.30;1.00;;;;;;5105296;28;20642;-72
2022/02/26 11:02:16;;;;;;;9.67;4.37;;;9.00;1.00;;;;;;5107274;28;20451;-71
2022/02/26 11:04:42;;;;;;;8.23;2.63;;;;;;;;;;5107811;28;20431;-72
2022/02/26 11:07:11;;;;;;;9.83;2.67;;;;;;;;;;5090892;28;20788;-71
2022/02/26 11:09:40;;;;;;;9.90;2.47;;;8.90;1.00;;;;;;5112434;28;20914;-71
2022/02/26 11:12:07;;;;;;;13.03;2.97;;;8.90;1.00;;;;;;5093942;28;20460;-71
2022/02/26 11:14:35;;;;;;;10.93;2.70;;;9.00;1.00;;;;;;5102990;28;20445;-71
2022/02/26 11:17:04;;;;;;;10.40;2.77;;;9.20;1.00;;;;;;5093722;28;20792;-72
2022/02/26 11:19:30;;;;;;;8.27;2.23;;;9.30;1.00;;;;;;5073668;28;20806;-72
2022/02/26 11:22:00;;;;;;;6.77;2.77;;;9.50;1.00;;;;;;5079340;28;20853;-68
2022/02/26 11:24:27;;;;;;;9.50;2.87;;;9.30;1.00;;;;;;5093995;28;20826;-71
2022/02/26 11:26:52;;;;;;;8.17;2.77;;;9.50;1.00;;;;;;5092055;28;20449;-70
2022/02/26 11:29:21;;;;;;;5.63;2.43;;;9.40;1.00;;;;;;5097712;28;20789;-69
2022/02/26 11:31:53;;;;;;;9.43;2.73;;;9.20;1.00;;;;;;5111132;28;20181;-71
2022/02/26 11:34:25;;;;;;;8.47;2.63;;;9.00;1.00;;;;;;5110601;28;20442;-70
2022/02/26 11:36:57;;;;;;;4.20;2.20;;;;;;;;;;5096962;28;20437;-66
2022/02/26 11:39:26;;;;;;;6.40;2.80;;;8.70;1.00;;;;;;5087923;28;20532;-64
2022/02/26 11:42:14;;;;;;;5.40;2.53;;;8.50;1.00;;;;;;5099798;28;20772;-64
2022/02/26 11:44:42;;;;;;;14.37;3.77;;;8.40;1.00;;;;;;5096422;28;20844;-64
2022/02/26 11:47:16;;;;;;;8.47;2.80;;;8.50;1.00;;;;;;5101836;28;20416;-63
2022/02/26 11:50:05;;;;;;;15.23;4.23;;;8.50;1.00;;;;;;5105922;28;20445;-64
2022/02/26 11:52:40;;;;;;;5.73;2.43;;;8.60;1.00;;;;;;5096524;28;20482;-63
2022/02/26 11:55:24;;;;;;;7.10;2.67;;;8.60;1.00;;;;;;5104130;28;20554;-63
2022/02/26 11:57:52;;;;;;;9.83;2.70;;;8.50;1.00;;;;;;5101448;28;20436;-63
2022/02/26 12:00:20;;;;;;;7.43;2.67;;;8.50;1.00;;;;;;5093481;28;20468;-63
2022/02/26 12:02:47;;;;;;;5.67;2.40;;;8.60;1.00;;;;;;5100849;28;20604;-63
2022/02/26 12:05:23;;;;;;;8.80;2.80;;;8.60;1.00;;;;;;5099638;28;20440;-63
2022/02/26 12:07:49;;;;;;;10.73;3.03;;;8.50;1.00;;;;;;5098557;28;20484;-64
2022/02/26 12:10:15;;;;;;;6.73;2.40;;;8.60;1.00;;;;;;5109081;28;20444;-63
2022/02/26 12:12:48;;;;;;;10.83;3.17;;;8.60;1.00;;;;;;5110437;28;20191;-63
2022/02/26 12:15:18;;;;;;;7.00;2.50;;;8.50;1.00;;;;;;5106177;28;20896;-64
2022/02/26 12:18:12;;;;;;;7.20;2.80;;;8.30;1.00;;;;;;5102836;28;20452;-65
2022/02/26 12:20:39;;;;;;;12.60;2.83;;;8.40;1.00;;;;;;5065819;28;20947;-65
2022/02/26 12:23:13;;;;;;;6.47;2.87;;;8.50;1.00;;;;;;5103205;28;20805;-64
2022/02/26 12:25:39;;;;;;;6.73;2.00;;;8.50;1.00;;;;;;5095738;28;20432;-64
2022/02/26 12:28:14;;;;;;;10.73;2.10;;;8.50;1.00;;;;;;5100678;28;20768;-63
2022/02/26 12:31:08;;;;;;;8.47;2.10;;;8.40;1.00;;;;;;5107450;28;20533;-65
2022/02/26 12:33:42;;;;;;;7.83;2.67;;;8.30;1.00;;;;;;5094394;28;20436;-63
2022/02/26 12:36:16;;;;;;;4.97;1.80;;;8.20;1.00;;;;;;5099532;28;20442;-63
2022/02/26 12:38:52;;;;;;;6.43;2.50;;;8.30;1.00;;;;;;5097871;28;20460;-63
2022/02/26 12:41:35;;;;;;;4.13;1.70;;;8.40;1.00;;;;;;5104282;28;21031;-63
2022/02/26 12:44:02;;;;;;;9.30;1.90;;;8.50;1.00;;;;;;5105358;28;20455;-63
2022/02/26 12:46:29;;;;;;;5.40;2.20;;;8.50;1.00;;;;;;5100071;28;20478;-63
2022/02/26 12:48:58;;;;;;;7.67;2.50;;;8.50;1.00;;;;;;5110674;28;20470;-63
2022/02/26 12:51:24;;;;;;;8.50;2.97;;;8.70;1.00;;;;;;5110013;28;20771;-62
2022/02/26 12:53:50;;;;;;;8.60;2.17;;;8.80;1.00;;;;;;5076986;28;20457;-63
2022/02/26 12:56:30;;;;;;;5.33;1.90;;;8.70;1.00;;;;;;5103973;28;20190;-62
2022/02/26 12:59:17;;;;;;;5.70;1.87;;;8.70;1.00;;;;;;5103918;28;20194;-63
2022/02/26 13:01:45;;;;;;;7.03;1.97;;;8.70;1.00;;;;;;5105695;28;20780;-63
2022/02/26 13:04:13;;;;;;;7.77;1.90;;;8.70;1.00;;;;;;5095649;28;20432;-64
2022/02/26 13:06:51;;;;;;;5.13;1.93;;;9.90;1.00;;;;;;5099094;28;20921;-63
2022/02/26 13:09:17;;;;;;;9.67;2.33;;;8.90;1.00;;;;;;5096743;28;20444;-63
2022/02/26 13:11:48;;;;;;;10.17;2.63;;;9.00;1.00;;;;;;5098776;28;20535;-64